createdAt,value
2019-06-26T00:05:07.480Z,23.90
2019-06-26T00:07:47.971Z,23.90
2019-06-26T00:10:28.568Z,23.90
2019-06-26T00:13:22.094Z,23.80
2019-06-26T00:15:52.203Z,23.70
2019-06-26T00:18:32.795Z,23.70
2019-06-26T00:21:13.087Z,23.70
2019-06-26T00:23:53.689Z,23.70
2019-06-26T00:26:34.624Z,23.60
2019-06-26T00:29:15.285Z,23.60
2019-06-26T00:31:55.937Z,23.60
2019-06-26T00:34:36.566Z,23.50
2019-06-26T00:37:17.383Z,23.40
2019-06-26T00:39:57.733Z,23.40
2019-06-26T00:42:38.232Z,23.30
2019-06-26T00:45:19.236Z,23.20
2019-06-26T00:48:00.020Z,23.20
2019-06-26T00:50:40.685Z,23.10
2019-06-26T00:53:21.226Z,23.10
2019-06-26T00:56:01.590Z,23.00
2019-06-26T00:58:42.216Z,23.00
2019-06-26T01:01:22.381Z,23.00
2019-06-26T01:07:10.249Z,23.00
2019-06-26T01:09:50.491Z,22.90
2019-06-26T01:12:30.942Z,22.80
2019-06-26T01:15:11.295Z,22.80
2019-06-26T01:17:52.015Z,22.70
2019-06-26T01:20:32.636Z,22.70
2019-06-26T01:23:13.452Z,22.70
2019-06-26T01:25:54.049Z,22.60
2019-06-26T01:28:34.523Z,22.60
2019-06-26T01:31:14.912Z,22.50
2019-06-26T01:33:55.303Z,22.50
2019-06-26T01:36:35.779Z,22.50
2019-06-26T01:39:16.732Z,22.50
2019-06-26T01:41:57.664Z,22.50
2019-06-26T01:44:38.408Z,22.40
2019-06-26T01:47:18.601Z,22.40
2019-06-26T01:49:59.725Z,22.40
2019-06-26T01:52:40.628Z,22.40
2019-06-26T01:55:21.535Z,22.40
2019-06-26T01:58:02.047Z,22.40
2019-06-26T02:00:42.511Z,22.40
2019-06-26T02:03:23.229Z,22.30
2019-06-26T02:06:04.122Z,22.40
2019-06-26T02:08:44.822Z,22.30
2019-06-26T02:11:25.352Z,22.30
2019-06-26T02:14:06.423Z,22.40
2019-06-26T02:16:46.655Z,22.40
2019-06-26T02:19:27.701Z,22.50
2019-06-26T02:22:08.353Z,22.50
2019-06-26T02:24:49.135Z,22.50
2019-06-26T02:27:29.640Z,22.50
2019-06-26T02:30:10.001Z,22.50
2019-06-26T02:32:50.643Z,22.50
2019-06-26T02:35:31.058Z,22.50
2019-06-26T02:38:11.828Z,22.50
2019-06-26T02:40:52.570Z,22.50
2019-06-26T02:43:33.159Z,22.40
2019-06-26T02:46:13.692Z,22.40
2019-06-26T02:48:54.364Z,22.40
2019-06-26T02:51:34.964Z,22.40
2019-06-26T02:54:15.871Z,22.40
2019-06-26T02:56:56.284Z,22.30
2019-06-26T02:59:36.956Z,22.30
2019-06-26T03:02:17.718Z,22.30
2019-06-26T03:04:58.462Z,22.30
2019-06-26T03:07:39.404Z,22.20
2019-06-26T03:10:20.436Z,22.20
2019-06-26T03:13:01.287Z,22.10
2019-06-26T03:15:41.735Z,22.10
2019-06-26T03:18:22.083Z,22.00
2019-06-26T03:21:02.728Z,21.90
2019-06-26T03:23:43.312Z,21.80
2019-06-26T03:26:23.830Z,21.80
2019-06-26T03:29:04.460Z,21.70
2019-06-26T03:31:44.973Z,21.60
2019-06-26T03:34:25.153Z,21.50
2019-06-26T03:37:06.132Z,21.50
2019-06-26T03:39:46.783Z,21.50
2019-06-26T03:42:27.412Z,21.50
2019-06-26T03:45:24.056Z,21.50
2019-06-26T03:47:50.959Z,21.60
2019-06-26T03:50:31.633Z,21.60
2019-06-26T03:53:12.393Z,21.60
2019-06-26T03:55:52.717Z,21.60
2019-06-26T03:58:33.132Z,21.60
2019-06-26T04:01:13.513Z,21.50
2019-06-26T04:03:57.298Z,21.60
2019-06-26T04:06:36.535Z,21.60
2019-06-26T04:09:17.555Z,21.60
2019-06-26T04:11:56.484Z,21.70
2019-06-26T04:14:44.480Z,21.70
2019-06-26T04:17:32.204Z,21.80
2019-06-26T04:20:20.167Z,21.90
2019-06-26T04:23:08.228Z,22.00
2019-06-26T04:25:56.279Z,22.10
2019-06-26T04:28:44.014Z,22.20
2019-06-26T04:31:31.744Z,22.20
2019-06-26T04:34:19.473Z,22.30
2019-06-26T04:37:07.472Z,22.30
2019-06-26T04:39:48.542Z,22.40
2019-06-26T04:42:29.072Z,22.40
2019-06-26T04:45:09.612Z,22.40
2019-06-26T04:47:50.420Z,22.50
2019-06-26T04:50:31.171Z,22.50
2019-06-26T04:53:11.771Z,22.60
2019-06-26T04:55:52.328Z,22.70
2019-06-26T04:58:32.984Z,22.80
2019-06-26T05:01:13.955Z,22.90
2019-06-26T05:03:54.589Z,23.00
2019-06-26T05:06:35.545Z,23.10
2019-06-26T05:12:00.045Z,23.30
2019-06-26T05:14:40.588Z,23.40
2019-06-26T05:17:21.225Z,23.50
2019-06-26T05:20:02.113Z,23.50
2019-06-26T05:22:42.588Z,23.60
2019-06-26T05:25:23.383Z,23.70
2019-06-26T05:28:03.869Z,23.70
2019-06-26T05:30:44.576Z,23.80
2019-06-26T05:33:25.077Z,24.00
2019-06-26T05:36:05.755Z,24.10
2019-06-26T05:38:46.385Z,24.20
2019-06-26T05:41:27.030Z,24.30
2019-06-26T05:44:08.064Z,24.40
2019-06-26T05:46:49.200Z,24.50
2019-06-26T05:49:29.862Z,24.60
2019-06-26T05:52:10.186Z,24.70
2019-06-26T05:54:51.128Z,24.90
2019-06-26T05:57:31.991Z,25.00
2019-06-26T06:00:12.569Z,25.20
2019-06-26T06:02:54.098Z,25.40
2019-06-26T06:05:35.292Z,25.50
2019-06-26T06:08:16.111Z,25.70
2019-06-26T06:10:58.310Z,25.80
2019-06-26T06:13:39.550Z,26.10
2019-06-26T06:16:20.220Z,26.40
2019-06-26T06:19:01.067Z,26.80
2019-06-26T06:21:41.924Z,27.30
2019-06-26T06:24:22.680Z,28.00
2019-06-26T06:27:03.131Z,28.80
2019-06-26T06:29:44.520Z,29.50
2019-06-26T06:32:24.964Z,30.30
2019-06-26T06:35:05.372Z,31.00
2019-06-26T06:37:45.945Z,31.70
2019-06-26T06:40:26.336Z,32.40
2019-06-26T06:43:07.234Z,33.20
2019-06-26T06:45:47.671Z,33.90
2019-06-26T06:48:28.680Z,34.40
2019-06-26T06:51:09.387Z,35.10
2019-06-26T06:53:50.393Z,35.70
2019-06-26T06:56:30.880Z,36.20
2019-06-26T06:59:11.731Z,36.70
2019-06-26T07:01:52.736Z,37.20
2019-06-26T07:04:33.663Z,37.40
2019-06-26T07:07:14.051Z,37.30
2019-06-26T07:09:54.868Z,37.30
2019-06-26T07:12:35.497Z,37.20
2019-06-26T07:15:15.819Z,37.00
2019-06-26T07:17:56.580Z,36.80
2019-06-26T07:20:37.055Z,36.50
2019-06-26T07:23:17.847Z,36.20
2019-06-26T07:25:58.326Z,36.00
2019-06-26T07:28:38.940Z,35.70
2019-06-26T07:31:19.200Z,35.50
2019-06-26T07:33:59.926Z,35.30
2019-06-26T07:36:40.494Z,35.20
2019-06-26T07:39:21.192Z,35.10
2019-06-26T07:42:01.811Z,35.00
2019-06-26T07:44:42.130Z,35.00
2019-06-26T07:47:32.579Z,35.10
2019-06-26T07:50:05.016Z,35.10
2019-06-26T07:52:46.073Z,35.30
2019-06-26T07:55:27.060Z,35.40
2019-06-26T07:58:08.020Z,35.50
2019-06-26T08:00:49.100Z,35.60
2019-06-26T08:03:29.851Z,35.70
2019-06-26T08:06:10.468Z,35.90
2019-06-26T08:08:50.753Z,36.10
2019-06-26T08:11:31.447Z,36.10
2019-06-26T08:14:12.065Z,36.20
2019-06-26T08:16:52.728Z,36.10
2019-06-26T08:19:33.020Z,36.20
2019-06-26T08:22:13.321Z,36.30
2019-06-26T08:24:54.404Z,36.40
2019-06-26T08:27:35.483Z,36.70
2019-06-26T08:30:15.980Z,36.90
2019-06-26T08:32:56.679Z,37.20
2019-06-26T08:35:37.024Z,37.30
2019-06-26T08:38:17.972Z,37.50
2019-06-26T08:40:58.500Z,37.40
2019-06-26T08:43:38.795Z,37.40
2019-06-26T08:46:19.612Z,37.60
2019-06-26T08:49:00.583Z,37.70
2019-06-26T08:51:41.335Z,37.90
2019-06-26T08:54:21.837Z,38.10
2019-06-26T08:57:02.560Z,38.20
2019-06-26T08:59:43.520Z,38.40
2019-06-26T09:02:24.720Z,38.60
2019-06-26T09:05:05.098Z,38.80
2019-06-26T09:07:45.742Z,38.90
2019-06-26T09:10:25.940Z,39.00
2019-06-26T09:13:06.819Z,39.20
2019-06-26T09:15:49.900Z,39.50
2019-06-26T09:18:35.324Z,39.60
2019-06-26T09:21:12.695Z,39.70
2019-06-26T09:23:53.360Z,39.90
2019-06-26T09:26:34.061Z,39.90
2019-06-26T09:29:14.746Z,40.10
2019-06-26T09:31:55.713Z,40.10
2019-06-26T09:34:36.621Z,40.20
2019-06-26T09:37:17.171Z,40.30
2019-06-26T09:39:57.654Z,40.50
2019-06-26T09:42:38.726Z,40.80
2019-06-26T09:45:19.229Z,41.00
2019-06-26T09:47:59.951Z,41.20
2019-06-26T09:50:41.042Z,41.30
2019-06-26T09:53:21.637Z,41.50
2019-06-26T09:56:02.483Z,41.50
2019-06-26T09:58:43.191Z,41.70
2019-06-26T10:01:24.027Z,41.70
2019-06-26T10:04:04.851Z,41.60
2019-06-26T10:06:45.253Z,41.60
2019-06-26T10:09:25.920Z,41.70
2019-06-26T10:12:06.511Z,41.80
2019-06-26T10:14:48.108Z,42.00
2019-06-26T10:17:28.492Z,42.10
2019-06-26T10:20:08.997Z,42.20
2019-06-26T10:22:49.808Z,42.30
2019-06-26T10:25:30.196Z,42.20
2019-06-26T10:28:10.581Z,42.00
2019-06-26T10:30:51.563Z,41.50
2019-06-26T10:33:32.291Z,41.50
2019-06-26T10:36:12.543Z,41.70
2019-06-26T10:38:53.192Z,42.00
2019-06-26T10:41:33.707Z,42.20
2019-06-26T10:44:14.706Z,42.30
2019-06-26T10:46:55.175Z,42.30
2019-06-26T10:49:35.739Z,42.20
2019-06-26T10:52:16.612Z,42.10
2019-06-26T10:54:57.381Z,41.90
2019-06-26T10:57:38.285Z,41.80
2019-06-26T11:00:18.669Z,41.60
2019-06-26T11:02:59.290Z,41.40
2019-06-26T11:05:40.284Z,41.20
2019-06-26T11:08:20.688Z,40.80
2019-06-26T11:11:01.198Z,40.50
2019-06-26T11:13:42.087Z,40.70
2019-06-26T11:16:23.004Z,40.70
2019-06-26T11:19:04.064Z,40.80
2019-06-26T11:21:44.619Z,40.70
2019-06-26T11:24:25.220Z,40.80
2019-06-26T11:30:19.129Z,40.70
2019-06-26T11:33:00.054Z,40.70
2019-06-26T11:35:40.956Z,40.70
2019-06-26T11:38:21.615Z,40.50
2019-06-26T11:41:02.364Z,40.50
2019-06-26T11:43:43.156Z,40.60
2019-06-26T11:46:23.659Z,40.80
2019-06-26T11:49:04.209Z,41.00
2019-06-26T11:51:45.733Z,41.20
2019-06-26T11:54:26.405Z,41.50
2019-06-26T11:57:07.262Z,41.60
2019-06-26T11:59:47.915Z,41.50
2019-06-26T12:02:28.438Z,41.70
2019-06-26T12:05:09.041Z,41.80
2019-06-26T12:07:49.636Z,41.90
2019-06-26T12:10:30.372Z,42.10
2019-06-26T12:13:10.899Z,42.40
2019-06-26T12:15:51.654Z,42.60
2019-06-26T12:18:32.204Z,42.90
2019-06-26T12:21:12.818Z,43.20
2019-06-26T12:23:53.322Z,43.00
2019-06-26T12:26:33.768Z,42.80
2019-06-26T12:29:14.315Z,42.50
2019-06-26T12:31:55.104Z,42.30
2019-06-26T12:34:35.580Z,42.20
2019-06-26T12:37:16.385Z,42.00
2019-06-26T12:39:57.176Z,42.00
2019-06-26T12:42:37.442Z,41.90
2019-06-26T12:45:17.664Z,41.90
2019-06-26T12:47:58.548Z,41.90
2019-06-26T12:50:38.923Z,41.60
2019-06-26T12:53:19.808Z,41.40
2019-06-26T12:56:00.765Z,41.20
2019-06-26T12:58:41.292Z,41.00
2019-06-26T13:01:25.000Z,41.10
2019-06-26T13:04:04.409Z,41.00
2019-06-26T13:06:44.812Z,41.10
2019-06-26T13:09:25.896Z,41.30
2019-06-26T13:12:06.249Z,41.50
2019-06-26T13:14:47.181Z,41.50
2019-06-26T13:17:28.041Z,41.00
2019-06-26T13:20:10.143Z,40.80
2019-06-26T13:22:50.940Z,40.60
2019-06-26T13:25:31.459Z,40.60
2019-06-26T13:28:12.019Z,40.60
2019-06-26T13:30:53.439Z,40.80
2019-06-26T13:33:34.435Z,41.10
2019-06-26T13:36:14.859Z,41.30
2019-06-26T13:38:55.517Z,41.50
2019-06-26T13:41:36.823Z,41.40
2019-06-26T13:44:17.232Z,41.00
2019-06-26T13:46:58.046Z,40.70
2019-06-26T13:49:38.672Z,40.80
2019-06-26T13:52:19.320Z,40.80
2019-06-26T13:55:00.291Z,40.70
2019-06-26T13:57:40.800Z,40.60
2019-06-26T14:00:21.279Z,40.40
2019-06-26T14:03:01.957Z,40.50
2019-06-26T14:05:42.867Z,40.40
2019-06-26T14:08:23.928Z,40.40
2019-06-26T14:11:07.327Z,40.60
2019-06-26T14:13:46.017Z,40.70
2019-06-26T14:16:29.673Z,40.60
2019-06-26T14:19:09.456Z,40.50
2019-06-26T14:21:50.735Z,40.30
2019-06-26T14:24:31.365Z,40.30
2019-06-26T14:27:11.897Z,40.20
2019-06-26T14:29:52.493Z,40.20
2019-06-26T14:32:33.018Z,40.40
2019-06-26T14:35:13.339Z,40.70
2019-06-26T14:37:54.323Z,40.70
2019-06-26T14:40:34.912Z,40.60
2019-06-26T14:43:15.527Z,40.50
2019-06-26T14:45:56.577Z,40.30
2019-06-26T14:48:36.983Z,40.20
2019-06-26T14:51:17.766Z,40.20
2019-06-26T14:53:58.733Z,40.20
2019-06-26T14:56:39.584Z,40.20
2019-06-26T14:59:20.347Z,40.40
2019-06-26T15:02:01.269Z,40.50
2019-06-26T15:04:45.196Z,40.80
2019-06-26T15:07:24.691Z,41.00
2019-06-26T15:10:05.375Z,41.30
2019-06-26T15:12:45.867Z,41.50
2019-06-26T15:15:26.407Z,41.40
2019-06-26T15:18:07.150Z,41.10
2019-06-26T15:20:47.405Z,40.70
2019-06-26T15:23:27.959Z,40.60
2019-06-26T15:26:08.524Z,40.50
2019-06-26T15:28:49.387Z,40.40
2019-06-26T15:31:30.380Z,40.40
2019-06-26T15:34:11.063Z,40.40
2019-06-26T15:36:51.727Z,40.50
2019-06-26T15:39:32.268Z,40.40
2019-06-26T15:42:13.017Z,40.40
2019-06-26T15:44:53.960Z,40.40
2019-06-26T15:47:34.606Z,40.50
2019-06-26T15:50:15.300Z,40.40
2019-06-26T15:52:56.032Z,40.20
2019-06-26T15:55:36.958Z,40.00
2019-06-26T15:58:17.437Z,39.90
2019-06-26T16:00:58.062Z,39.70
2019-06-26T16:03:38.875Z,39.70
2019-06-26T16:06:19.909Z,39.70
2019-06-26T16:09:00.435Z,39.70
2019-06-26T16:11:40.804Z,39.70
2019-06-26T16:14:21.552Z,39.70
2019-06-26T16:20:06.373Z,39.60
2019-06-26T16:22:46.839Z,39.50
2019-06-26T16:25:27.732Z,39.40
2019-06-26T16:28:08.216Z,39.10
2019-06-26T16:30:49.140Z,39.00
2019-06-26T16:33:29.972Z,39.00
2019-06-26T16:36:10.739Z,39.00
2019-06-26T16:38:51.547Z,38.80
2019-06-26T16:41:32.095Z,38.70
2019-06-26T16:44:12.471Z,38.60
2019-06-26T16:46:53.283Z,38.60
2019-06-26T16:49:33.900Z,38.50
2019-06-26T16:52:14.613Z,38.40
2019-06-26T16:54:55.246Z,38.40
2019-06-26T16:57:35.984Z,38.30
2019-06-26T17:00:16.867Z,38.20
2019-06-26T17:02:57.470Z,38.10
2019-06-26T17:05:38.264Z,38.10
2019-06-26T17:08:19.009Z,38.20
2019-06-26T17:10:59.612Z,38.10
2019-06-26T17:13:40.195Z,38.00
2019-06-26T17:16:21.139Z,37.80
2019-06-26T17:19:01.549Z,37.80
2019-06-26T17:21:42.179Z,37.60
2019-06-26T17:24:22.583Z,37.50
2019-06-26T17:27:03.317Z,37.40
2019-06-26T17:29:43.847Z,37.20
2019-06-26T17:32:24.676Z,37.10
2019-06-26T17:35:05.528Z,37.10
2019-06-26T17:37:46.003Z,37.00
2019-06-26T17:40:26.723Z,37.00
2019-06-26T17:43:12.486Z,36.80
2019-06-26T17:45:49.894Z,36.80
2019-06-26T17:48:30.295Z,36.60
2019-06-26T17:51:11.110Z,36.60
2019-06-26T17:53:51.864Z,36.40
2019-06-26T17:56:32.932Z,36.40
2019-06-26T17:59:13.288Z,36.30
2019-06-26T18:01:54.301Z,36.10
2019-06-26T18:04:35.025Z,36.00
2019-06-26T18:07:15.555Z,35.90
2019-06-26T18:09:56.165Z,35.80
2019-06-26T18:12:36.635Z,35.70
2019-06-26T18:15:17.154Z,35.60
2019-06-26T18:17:57.919Z,35.40
2019-06-26T18:20:38.519Z,35.30
2019-06-26T18:23:19.453Z,35.20
2019-06-26T18:26:12.403Z,35.10
2019-06-26T18:28:42.975Z,35.00
2019-06-26T18:31:23.949Z,35.00
2019-06-26T18:34:04.479Z,34.90
2019-06-26T18:36:44.785Z,34.90
2019-06-26T18:39:25.423Z,34.80
2019-06-26T18:42:05.795Z,34.70
2019-06-26T18:44:46.517Z,34.60
2019-06-26T18:47:27.263Z,34.60
2019-06-26T18:50:07.761Z,34.50
2019-06-26T18:55:32.408Z,34.30
2019-06-26T18:58:12.836Z,34.20
2019-06-26T19:00:53.829Z,34.10
2019-06-26T19:03:34.882Z,34.00
2019-06-26T19:06:15.947Z,33.90
2019-06-26T19:08:56.649Z,33.80
2019-06-26T19:11:37.037Z,33.70
2019-06-26T19:14:18.094Z,33.60
2019-06-26T19:16:58.472Z,33.50
2019-06-26T19:19:39.243Z,33.40
2019-06-26T19:22:19.755Z,33.30
2019-06-26T19:25:00.532Z,33.20
2019-06-26T19:27:41.676Z,33.10
2019-06-26T19:30:22.237Z,33.00
2019-06-26T19:33:02.887Z,32.90
2019-06-26T19:35:43.144Z,32.80
2019-06-26T19:38:23.547Z,32.70
2019-06-26T19:41:04.005Z,32.60
2019-06-26T19:43:45.058Z,32.50
2019-06-26T19:46:25.653Z,32.40
2019-06-26T19:49:06.393Z,32.30
2019-06-26T19:51:46.833Z,32.20
2019-06-26T19:54:32.116Z,32.10
2019-06-26T19:57:10.176Z,32.00
2019-06-26T19:59:50.751Z,31.90
2019-06-26T20:02:31.248Z,31.90
2019-06-26T20:05:12.032Z,31.80
2019-06-26T20:07:52.381Z,31.80
2019-06-26T20:10:32.796Z,31.70
2019-06-26T20:13:12.981Z,31.60
2019-06-26T20:15:53.580Z,31.50
2019-06-26T20:18:34.393Z,31.50
2019-06-26T20:21:14.976Z,31.40
2019-06-26T20:23:55.512Z,31.40
2019-06-26T20:29:03.583Z,31.30
2019-06-26T20:31:44.025Z,31.10
2019-06-26T20:34:24.437Z,31.00
2019-06-26T20:37:05.152Z,31.00
2019-06-26T20:39:46.418Z,30.90
2019-06-26T20:42:27.076Z,30.90
2019-06-26T20:45:07.613Z,30.80
2019-06-26T20:47:48.219Z,30.80
2019-06-26T20:50:28.995Z,30.70
2019-06-26T20:53:09.521Z,30.60
2019-06-26T20:55:50.032Z,30.50
2019-06-26T20:58:30.994Z,30.40
2019-06-26T21:01:11.849Z,30.30
2019-06-26T21:03:52.736Z,30.20
2019-06-26T21:06:33.422Z,30.20
2019-06-26T21:09:14.423Z,30.10
2019-06-26T21:11:55.421Z,30.10
2019-06-26T21:14:35.940Z,30.10
2019-06-26T21:17:16.648Z,30.00
2019-06-26T21:19:57.116Z,30.00
2019-06-26T21:22:37.483Z,30.10
2019-06-26T21:25:19.774Z,30.10
2019-06-26T21:28:00.570Z,30.10
2019-06-26T21:30:41.288Z,30.10
2019-06-26T21:33:21.908Z,30.10
2019-06-26T21:36:02.968Z,30.10
2019-06-26T21:38:43.821Z,30.10
2019-06-26T21:41:24.487Z,30.10
2019-06-26T21:44:05.235Z,30.00
2019-06-26T21:46:46.180Z,29.90
2019-06-26T21:49:26.689Z,29.90
2019-06-26T21:52:07.295Z,29.80
2019-06-26T21:54:48.063Z,29.70
2019-06-26T21:57:28.548Z,29.70
2019-06-26T22:00:10.830Z,29.70
2019-06-26T22:02:51.599Z,29.70
2019-06-26T22:05:32.107Z,29.60
2019-06-26T22:08:12.711Z,29.60
2019-06-26T22:10:53.265Z,29.50
2019-06-26T22:13:33.885Z,29.40
2019-06-26T22:16:14.416Z,29.40
2019-06-26T22:18:55.399Z,29.40
2019-06-26T22:21:36.065Z,29.30
2019-06-26T22:24:16.567Z,29.30
2019-06-26T22:26:57.460Z,29.20
2019-06-26T22:29:38.405Z,29.10
2019-06-26T22:32:19.061Z,29.10
2019-06-26T22:34:59.567Z,29.10
2019-06-26T22:37:40.323Z,29.00
2019-06-26T22:40:20.679Z,29.00
2019-06-26T22:43:01.531Z,29.00
2019-06-26T22:45:42.100Z,28.90
2019-06-26T22:48:22.912Z,28.90
2019-06-26T22:51:03.721Z,28.90
2019-06-26T22:53:44.460Z,28.90
2019-06-26T22:56:24.933Z,28.90
2019-06-26T22:59:05.515Z,28.80
2019-06-26T23:01:46.346Z,28.70
2019-06-26T23:04:27.084Z,28.70
2019-06-26T23:07:07.828Z,28.60
2019-06-26T23:09:48.428Z,28.60
2019-06-26T23:12:28.714Z,28.60
2019-06-26T23:15:09.413Z,28.60
2019-06-26T23:17:50.282Z,28.50
2019-06-26T23:20:31.194Z,28.50
2019-06-26T23:23:12.126Z,28.50
2019-06-26T23:25:53.201Z,28.40
2019-06-26T23:28:33.903Z,28.40
2019-06-26T23:31:14.972Z,28.30
2019-06-26T23:33:55.633Z,28.30
2019-06-26T23:36:36.531Z,28.20
2019-06-26T23:39:17.348Z,28.20
2019-06-26T23:41:57.829Z,28.10
2019-06-26T23:44:38.986Z,28.10
2019-06-26T23:47:19.884Z,28.10
2019-06-26T23:50:00.740Z,28.10
2019-06-26T23:52:41.214Z,28.00
2019-06-26T23:55:22.352Z,27.90
2019-06-26T23:58:03.125Z,27.80
